Wetterdaten: Woche 04.02.13 - 10.02.13 (KW6)
Datum Zeit Temp. Aussen +5cm Feuchte Auss BlattFeu 1 Luftdruck Regen Sonnenschein UV Solar Windben
04.02.2013 00:00 5,3 C 4,0 C 99 % 15 lf 1010,5 hPa 0,0 l/m 0,00 h 0,0 UV-I 0 W/m 20,9 km/h (4 Bft)
04.02.2013 01:00 5,5 C 4,3 C 99 % 15 lf 1010,2 hPa 0,0 l/m 0,00 h 0,0 UV-I 0 W/m 15,6 km/h (3 Bft)
04.02.2013 02:00 5,9 C 4,6 C 100 % 15 lf 1009,7 hPa 0,0 l/m 0,00 h 0,0 UV-I 0 W/m 15,6 km/h (3 Bft)
04.02.2013 03:00 6,2 C 5,1 C 100 % 15 lf 1009,1 hPa 1,2 l/m 0,00 h 0,0 UV-I 0 W/m 13,9 km/h (3 Bft)
04.02.2013 04:00 6,3 C 5,1 C 100 % 15 lf 1008,5 hPa 0,4 l/m 0,00 h 0,0 UV-I 0 W/m 14,6 km/h (3 Bft)
04.02.2013 05:00 6,6 C 5,4 C 100 % 15 lf 1008,1 hPa 0,0 l/m 0,00 h 0,0 UV-I 0 W/m 19,2 km/h (3 Bft)
04.02.2013 06:00 6,9 C 5,7 C 100 % 14 lf 1007,8 hPa 0,0 l/m 0,00 h 0,0 UV-I 0 W/m 17,9 km/h (3 Bft)
04.02.2013 07:00 7,3 C 5,8 C 100 % 11 lf 1007,7 hPa 0,2 l/m 0,00 h 0,0 UV-I 0 W/m 16,5 km/h (3 Bft)
04.02.2013 08:00 7,5 C 6,2 C 100 % 15 lf 1008,0 hPa 0,0 l/m 0,00 h 0,0 UV-I 7 W/m 14,4 km/h (3 Bft)
04.02.2013 09:00 7,9 C 6,4 C 99 % 15 lf 1008,0 hPa 0,2 l/m 0,00 h 0,0 UV-I 22 W/m 16,4 km/h (3 Bft)
04.02.2013 10:00 8,1 C 6,8 C 99 % 15 lf 1008,1 hPa 0,6 l/m 0,00 h 0,0 UV-I 29 W/m 15,7 km/h (3 Bft)
04.02.2013 11:00 8,2 C 6,8 C 100 % 15 lf 1008,6 hPa 0,6 l/m 0,00 h 0,0 UV-I 25 W/m 12,9 km/h (3 Bft)
04.02.2013 12:00 8,4 C 7,3 C 100 % 15 lf 1008,6 hPa 0,4 l/m 0,00 h 0,0 UV-I 58 W/m 18,5 km/h (3 Bft)
04.02.2013 13:00 9,0 C 6,9 C 91 % 3 lf 1008,9 hPa 0,0 l/m 0,43 h 0,0 UV-I 218 W/m 20,2 km/h (4 Bft)
04.02.2013 14:00 9,2 C 7,1 C 76 % 0 lf 1009,0 hPa 0,0 l/m 0,00 h 0,0 UV-I 98 W/m 12,2 km/h (3 Bft)
04.02.2013 15:00 9,0 C 7,2 C 76 % 3 lf 1009,2 hPa 0,0 l/m 0,00 h 0,0 UV-I 41 W/m 11,5 km/h (2 Bft)
04.02.2013 16:00 7,8 C 5,7 C 88 % 12 lf 1009,6 hPa 0,0 l/m 0,00 h 0,0 UV-I 29 W/m 7,6 km/h (2 Bft)
04.02.2013 17:00 7,1 C 5,3 C 84 % 0 lf 1010,1 hPa 0,0 l/m 0,13 h 0,0 UV-I 17 W/m 9,2 km/h (2 Bft)
04.02.2013 18:00 6,2 C 4,3 C 83 % 0 lf 1010,7 hPa 0,0 l/m 0,00 h 0,0 UV-I 0 W/m 7,4 km/h (2 Bft)
04.02.2013 19:00 5,8 C 4,2 C 84 % 0 lf 1010,4 hPa 0,0 l/m 0,00 h 0,0 UV-I 0 W/m 7,7 km/h (2 Bft)
04.02.2013 20:00 6,3 C 5,0 C 82 % 0 lf 1009,9 hPa 0,0 l/m 0,00 h 0,0 UV-I 0 W/m 13,0 km/h (3 Bft)
04.02.2013 21:00 6,7 C 5,1 C 79 % 0 lf 1009,7 hPa 0,0 l/m 0,00 h 0,0 UV-I 0 W/m 15,4 km/h (3 Bft)
04.02.2013 22:00 6,3 C 4,8 C 84 % 0 lf 1009,1 hPa 0,0 l/m 0,00 h 0,0 UV-I 0 W/m 15,8 km/h (3 Bft)
04.02.2013 23:00 6,1 C 4,7 C 86 % 0 lf 1008,3 hPa 0,0 l/m 0,00 h 0,0 UV-I 0 W/m 19,1 km/h (3 Bft)
05.02.2013 00:00 6,0 C 4,6 C 87 % 0 lf 1007,8 hPa 0,0 l/m 0,00 h 0,0 UV-I 0 W/m 17,1 km/h (3 Bft)
05.02.2013 01:00 5,8 C 4,6 C 89 % 0 lf 1006,9 hPa 0,0 l/m 0,00 h 0,0 UV-I 0 W/m 16,2 km/h (3 Bft)
05.02.2013 02:00 5,8 C 4,6 C 88 % 0 lf 1006,0 hPa 0,0 l/m 0,00 h 0,0 UV-I 0 W/m 17,5 km/h (3 Bft)
05.02.2013 03:00 5,8 C 4,5 C 86 % 0 lf 1004,7 hPa 0,0 l/m 0,00 h 0,0 UV-I 0 W/m 19,8 km/h (3 Bft)
05.02.2013 04:00 5,6 C 4,2 C 86 % 0 lf 1003,2 hPa 0,0 l/m 0,00 h 0,0 UV-I 0 W/m 17,7 km/h (3 Bft)
05.02.2013 05:00 5,3 C 4,0 C 86 % 0 lf 1001,3 hPa 0,0 l/m 0,00 h 0,0 UV-I 0 W/m 20,4 km/h (4 Bft)
05.02.2013 06:00 5,5 C 4,3 C 86 % 1 lf 999,4 hPa 0,0 l/m 0,00 h 0,0 UV-I 0 W/m 25,6 km/h (4 Bft)
05.02.2013 07:00 4,8 C 2,9 C 90 % 11 lf 998,7 hPa 4,2 l/m 0,00 h 0,0 UV-I 0 W/m 27,8 km/h (4 Bft)
05.02.2013 08:00 2,6 C 1,2 C 95 % 12 lf 998,8 hPa 0,2 l/m 0,00 h 0,0 UV-I 12 W/m 12,6 km/h (3 Bft)
05.02.2013 09:00 3,1 C 1,7 C 96 % 7 lf 998,8 hPa 0,0 l/m 0,00 h 0,0 UV-I 29 W/m 23,2 km/h (4 Bft)
05.02.2013 10:00 2,8 C 1,3 C 94 % 2 lf 999,6 hPa 0,0 l/m 0,00 h 0,0 UV-I 30 W/m 17,6 km/h (3 Bft)
05.02.2013 11:00 3,4 C 2,0 C 91 % 0 lf 999,5 hPa 0,0 l/m 0,30 h 0,0 UV-I 192 W/m 19,5 km/h (3 Bft)
05.02.2013 12:00 3,6 C 2,5 C 85 % 0 lf 999,5 hPa 0,0 l/m 0,20 h 0,0 UV-I 171 W/m 23,3 km/h (4 Bft)
05.02.2013 13:00 3,9 C 3,6 C 85 % 0 lf 999,0 hPa 0,0 l/m 0,43 h 0,0 UV-I 230 W/m 18,0 km/h (3 Bft)
05.02.2013 14:00 4,6 C 3,7 C 79 % 0 lf 998,6 hPa 0,0 l/m 0,47 h 0,0 UV-I 228 W/m 15,9 km/h (3 Bft)
05.02.2013 15:00 3,6 C 2,3 C 84 % 0 lf 998,0 hPa 0,0 l/m 0,20 h 0,0 UV-I 101 W/m 8,0 km/h (2 Bft)
05.02.2013 16:00 2,9 C 1,8 C 85 % 0 lf 997,4 hPa 0,0 l/m 0,00 h 0,0 UV-I 38 W/m 5,9 km/h (2 Bft)
05.02.2013 17:00 2,7 C 1,3 C 83 % 0 lf 996,8 hPa 0,0 l/m 0,00 h 0,0 UV-I 15 W/m 10,2 km/h (2 Bft)
05.02.2013 18:00 1,9 C 0,7 C 85 % 0 lf 996,9 hPa 0,0 l/m 0,00 h 0,0 UV-I 0 W/m 5,2 km/h (1 Bft)
05.02.2013 19:00 1,8 C 0,6 C 90 % 0 lf 997,1 hPa 0,0 l/m 0,00 h 0,0 UV-I 0 W/m 8,2 km/h (2 Bft)
05.02.2013 20:00 1,4 C 0,1 C 92 % 0 lf 997,1 hPa 0,0 l/m 0,00 h 0,0 UV-I 0 W/m 9,3 km/h (2 Bft)
05.02.2013 21:00 1,3 C 0,1 C 93 % 0 lf 997,1 hPa 0,0 l/m 0,00 h 0,0 UV-I 0 W/m 6,2 km/h (2 Bft)
05.02.2013 22:00 1,2 C -0,0 C 93 % 0 lf 997,0 hPa 0,0 l/m 0,00 h 0,0 UV-I 0 W/m 5,0 km/h (1 Bft)
05.02.2013 23:00 1,2 C 0,1 C 93 % 0 lf 996,6 hPa 0,0 l/m 0,00 h 0,0 UV-I 0 W/m 10,7 km/h (2 Bft)
06.02.2013 00:00 1,3 C 0,2 C 91 % 0 lf 995,8 hPa 0,0 l/m 0,00 h 0,0 UV-I 0 W/m 9,4 km/h (2 Bft)
06.02.2013 01:00 1,4 C 0,4 C 91 % 1 lf 994,9 hPa 0,0 l/m 0,00 h 0,0 UV-I 0 W/m 8,2 km/h (2 Bft)
06.02.2013 02:00 1,2 C -0,7 C 92 % 15 lf 994,4 hPa 0,0 l/m 0,00 h 0,0 UV-I 0 W/m 9,1 km/h (2 Bft)
06.02.2013 03:00 0,4 C -1,0 C 96 % 15 lf 993,2 hPa 0,0 l/m 0,00 h 0,0 UV-I 0 W/m 11,8 km/h (2 Bft)
06.02.2013 04:00 0,2 C -1,0 C 98 % 15 lf 992,3 hPa 0,0 l/m 0,00 h 0,0 UV-I 0 W/m 14,7 km/h (3 Bft)
06.02.2013 05:00 0,2 C -1,0 C 98 % 15 lf 991,9 hPa 0,0 l/m 0,00 h 0,0 UV-I 0 W/m 6,2 km/h (2 Bft)
06.02.2013 06:00 0,2 C -1,0 C 99 % 15 lf 991,9 hPa 0,0 l/m 0,00 h 0,0 UV-I 0 W/m 3,8 km/h (1 Bft)
06.02.2013 07:00 0,2 C -1,0 C 99 % 15 lf 992,5 hPa 5,8 l/m 0,00 h 0,0 UV-I 0 W/m 0,0 km/h (0 Bft)
06.02.2013 08:00 0,2 C -1,0 C 99 % 15 lf 993,2 hPa 2,4 l/m 0,00 h 0,0 UV-I 5 W/m 0,1 km/h (0 Bft)
06.02.2013 09:00 0,4 C -1,0 C 99 % 15 lf 994,2 hPa 1,0 l/m 0,00 h 0,0 UV-I 12 W/m 0,0 km/h (0 Bft)
06.02.2013 10:00 0,6 C -0,6 C 99 % 15 lf 995,6 hPa 0,4 l/m 0,00 h 0,0 UV-I 28 W/m 5,9 km/h (2 Bft)
06.02.2013 11:00 0,7 C -0,4 C 99 % 12 lf 997,0 hPa 0,0 l/m 0,00 h 0,0 UV-I 53 W/m 14,9 km/h (3 Bft)
06.02.2013 12:00 1,0 C -0,1 C 99 % 11 lf 998,2 hPa 0,4 l/m 0,00 h 0,0 UV-I 103 W/m 15,6 km/h (3 Bft)
06.02.2013 13:00 1,6 C 0,3 C 97 % 2 lf 999,2 hPa 0,2 l/m 0,30 h 0,0 UV-I 209 W/m 16,0 km/h (3 Bft)
06.02.2013 14:00 1,8 C 0,1 C 94 % 0 lf 1000,2 hPa 0,0 l/m 0,77 h 0,0 UV-I 239 W/m 9,8 km/h (2 Bft)
06.02.2013 15:00 2,6 C 0,7 C 91 % 0 lf 1001,2 hPa 0,0 l/m 0,90 h 0,0 UV-I 214 W/m 8,1 km/h (2 Bft)
06.02.2013 16:00 2,5 C 0,4 C 90 % 0 lf 1002,1 hPa 0,0 l/m 0,00 h 0,0 UV-I 38 W/m 2,3 km/h (1 Bft)
06.02.2013 17:00 1,7 C -1,0 C 91 % 1 lf 1002,5 hPa 0,0 l/m 0,00 h 0,0 UV-I 12 W/m 0,0 km/h (0 Bft)
06.02.2013 18:00 0,6 C -1,5 C 93 % 6 lf 1003,2 hPa 0,0 l/m 0,00 h 0,0 UV-I 0 W/m 0,3 km/h (0 Bft)
06.02.2013 19:00 0,3 C -1,2 C 95 % 9 lf 1003,7 hPa 0,0 l/m 0,00 h 0,0 UV-I 0 W/m 0,6 km/h (0 Bft)
06.02.2013 20:00 0,3 C -0,8 C 97 % 9 lf 1004,2 hPa 0,0 l/m 0,00 h 0,0 UV-I 0 W/m 1,1 km/h (1 Bft)
06.02.2013 21:00 1,1 C -0,0 C 98 % 1 lf 1004,8 hPa 0,0 l/m 0,00 h 0,0 UV-I 0 W/m 3,1 km/h (1 Bft)
06.02.2013 22:00 1,1 C -0,5 C 97 % 2 lf 1005,4 hPa 0,0 l/m 0,00 h 0,0 UV-I 0 W/m 1,4 km/h (1 Bft)
06.02.2013 23:00 0,9 C -0,4 C 97 % 15 lf 1005,9 hPa 0,0 l/m 0,00 h 0,0 UV-I 0 W/m 1,2 km/h (1 Bft)
07.02.2013 00:00 0,8 C -0,9 C 97 % 15 lf 1006,5 hPa 0,0 l/m 0,00 h 0,0 UV-I 0 W/m 3,5 km/h (1 Bft)
07.02.2013 01:00 0,8 C -0,5 C 98 % 15 lf 1007,0 hPa 0,0 l/m 0,00 h 0,0 UV-I 0 W/m 3,1 km/h (1 Bft)
07.02.2013 02:00 0,9 C -0,5 C 98 % 5 lf 1007,3 hPa 0,0 l/m 0,00 h 0,0 UV-I 0 W/m 5,0 km/h (1 Bft)
07.02.2013 03:00 0,7 C -1,0 C 98 % 3 lf 1007,5 hPa 0,0 l/m 0,00 h 0,0 UV-I 0 W/m 5,9 km/h (2 Bft)
07.02.2013 04:00 0,8 C -0,5 C 98 % 11 lf 1007,8 hPa 0,0 l/m 0,00 h 0,0 UV-I 0 W/m 8,5 km/h (2 Bft)
07.02.2013 05:00 0,9 C -0,4 C 97 % 5 lf 1008,0 hPa 0,0 l/m 0,00 h 0,0 UV-I 0 W/m 9,7 km/h (2 Bft)
07.02.2013 06:00 1,0 C -0,3 C 97 % 0 lf 1008,3 hPa 0,0 l/m 0,00 h 0,0 UV-I 0 W/m 7,6 km/h (2 Bft)
07.02.2013 07:00 1,2 C 0,0 C 97 % 12 lf 1008,7 hPa 0,2 l/m 0,00 h 0,0 UV-I 0 W/m 9,3 km/h (2 Bft)
07.02.2013 08:00 1,2 C 0,1 C 98 % 13 lf 1009,4 hPa 0,0 l/m 0,00 h 0,0 UV-I 15 W/m 5,7 km/h (1 Bft)
07.02.2013 09:00 1,4 C 0,6 C 98 % 0 lf 1010,0 hPa 0,0 l/m 0,00 h 0,0 UV-I 43 W/m 5,0 km/h (1 Bft)
07.02.2013 10:00 1,9 C 1,3 C 97 % 0 lf 1010,4 hPa 0,0 l/m 0,27 h 0,0 UV-I 122 W/m 6,0 km/h (2 Bft)
07.02.2013 11:00 3,0 C 2,2 C 93 % 0 lf 1010,7 hPa 0,0 l/m 0,47 h 0,0 UV-I 227 W/m 9,3 km/h (2 Bft)
07.02.2013 12:00 3,7 C 2,4 C 90 % 0 lf 1010,7 hPa 0,0 l/m 0,50 h 0,0 UV-I 229 W/m 7,2 km/h (2 Bft)
07.02.2013 13:00 3,9 C 2,8 C 87 % 0 lf 1010,6 hPa 0,0 l/m 0,33 h 0,0 UV-I 203 W/m 8,1 km/h (2 Bft)
07.02.2013 14:00 4,2 C 2,7 C 85 % 2 lf 1010,4 hPa 0,0 l/m 0,03 h 0,0 UV-I 94 W/m 5,5 km/h (1 Bft)
07.02.2013 15:00 2,9 C 0,6 C 90 % 12 lf 1010,6 hPa 0,0 l/m 0,23 h 0,0 UV-I 96 W/m 4,0 km/h (1 Bft)
07.02.2013 16:00 2,4 C 0,2 C 93 % 0 lf 1010,6 hPa 0,0 l/m 0,00 h 0,0 UV-I 16 W/m 0,3 km/h (0 Bft)
07.02.2013 17:00 1,7 C -0,2 C 94 % 0 lf 1010,8 hPa 0,0 l/m 0,00 h 0,0 UV-I 13 W/m 3,2 km/h (1 Bft)
07.02.2013 18:00 1,1 C -0,4 C 96 % 2 lf 1011,1 hPa 0,0 l/m 0,00 h 0,0 UV-I 0 W/m 2,7 km/h (1 Bft)
07.02.2013 19:00 0,8 C -0,4 C 97 % 6 lf 1011,4 hPa 0,0 l/m 0,00 h 0,0 UV-I 0 W/m 4,5 km/h (1 Bft)
07.02.2013 20:00 0,9 C -0,2 C 98 % 0 lf 1011,5 hPa 0,0 l/m 0,00 h 0,0 UV-I 0 W/m 3,5 km/h (1 Bft)
07.02.2013 21:00 0,9 C -0,1 C 98 % 0 lf 1011,6 hPa 0,0 l/m 0,00 h 0,0 UV-I 0 W/m 3,4 km/h (1 Bft)
07.02.2013 22:00 0,9 C 0,1 C 98 % 0 lf 1011,5 hPa 0,0 l/m 0,00 h 0,0 UV-I 0 W/m 4,9 km/h (1 Bft)
07.02.2013 23:00 0,9 C -0,3 C 98 % 0 lf 1011,5 hPa 0,0 l/m 0,00 h 0,0 UV-I 0 W/m 6,7 km/h (2 Bft)
08.02.2013 00:00 0,7 C -0,4 C 98 % 0 lf 1011,3 hPa 0,0 l/m 0,00 h 0,0 UV-I 0 W/m 3,0 km/h (1 Bft)
08.02.2013 01:00 0,6 C -0,4 C 99 % 8 lf 1011,0 hPa 0,0 l/m 0,00 h 0,0 UV-I 0 W/m 5,1 km/h (1 Bft)
08.02.2013 02:00 0,4 C -1,0 C 99 % 15 lf 1010,8 hPa 0,0 l/m 0,00 h 0,0 UV-I 0 W/m 2,1 km/h (1 Bft)
08.02.2013 03:00 0,3 C -1,0 C 99 % 15 lf 1010,5 hPa 0,0 l/m 0,00 h 0,0 UV-I 0 W/m 4,3 km/h (1 Bft)
08.02.2013 04:00 0,3 C -1,0 C 99 % 15 lf 1010,6 hPa 0,0 l/m 0,00 h 0,0 UV-I 0 W/m 2,8 km/h (1 Bft)
08.02.2013 05:00 0,3 C -1,0 C 99 % 15 lf 1011,0 hPa 0,2 l/m 0,00 h 0,0 UV-I 0 W/m 0,9 km/h (0 Bft)
08.02.2013 06:00 0,4 C -0,9 C 99 % 15 lf 1011,4 hPa 1,8 l/m 0,00 h 0,0 UV-I 0 W/m 1,3 km/h (1 Bft)
08.02.2013 07:00 0,4 C -0,9 C 99 % 14 lf 1012,0 hPa 0,4 l/m 0,00 h 0,0 UV-I 0 W/m 1,1 km/h (1 Bft)
08.02.2013 08:00 0,4 C -0,5 C 99 % 13 lf 1012,7 hPa 0,0 l/m 0,00 h 0,0 UV-I 9 W/m 2,9 km/h (1 Bft)
08.02.2013 09:00 0,5 C -0,4 C 100 % 14 lf 1013,3 hPa 0,0 l/m 0,00 h 0,0 UV-I 28 W/m 9,9 km/h (2 Bft)
08.02.2013 10:00 0,6 C -0,3 C 100 % 14 lf 1013,8 hPa 0,0 l/m 0,00 h 0,0 UV-I 60 W/m 8,3 km/h (2 Bft)
08.02.2013 11:00 1,0 C 0,3 C 99 % 5 lf 1014,2 hPa 0,0 l/m 0,00 h 0,0 UV-I 139 W/m 7,8 km/h (2 Bft)
08.02.2013 12:00 1,3 C 0,2 C 96 % 0 lf 1014,5 hPa 0,0 l/m 0,00 h 0,0 UV-I 125 W/m 11,2 km/h (2 Bft)
08.02.2013 13:00 1,3 C 0,6 C 91 % 0 lf 1014,6 hPa 0,0 l/m 0,00 h 0,0 UV-I 121 W/m 7,5 km/h (2 Bft)
08.02.2013 14:00 2,3 C 1,7 C 87 % 0 lf 1014,8 hPa 0,0 l/m 0,57 h 0,0 UV-I 227 W/m 7,0 km/h (2 Bft)
08.02.2013 15:00 2,3 C 1,4 C 83 % 0 lf 1014,8 hPa 0,0 l/m 0,00 h 0,0 UV-I 82 W/m 8,8 km/h (2 Bft)
08.02.2013 16:00 1,7 C 0,7 C 82 % 0 lf 1014,8 hPa 0,0 l/m 0,00 h 0,0 UV-I 35 W/m 4,0 km/h (1 Bft)
08.02.2013 17:00 1,4 C -0,2 C 86 % 1 lf 1014,8 hPa 0,0 l/m 0,00 h 0,0 UV-I 14 W/m 3,3 km/h (1 Bft)
08.02.2013 18:00 0,1 C -1,7 C 93 % 2 lf 1015,5 hPa 0,6 l/m 0,00 h 0,0 UV-I 0 W/m 3,4 km/h (1 Bft)
08.02.2013 19:00 -0,6 C -2,1 C 95 % 1 lf 1016,0 hPa 0,2 l/m 0,00 h 0,0 UV-I 0 W/m 0,2 km/h (0 Bft)
08.02.2013 20:00 -0,6 C -1,7 C 96 % 1 lf 1016,3 hPa 0,0 l/m 0,00 h 0,0 UV-I 0 W/m 1,0 km/h (0 Bft)
08.02.2013 21:00 -0,7 C -2,4 C 97 % 0 lf 1016,6 hPa 0,0 l/m 0,00 h 0,0 UV-I 0 W/m 0,0 km/h (0 Bft)
08.02.2013 22:00 -1,3 C -2,9 C 97 % 0 lf 1016,9 hPa 0,0 l/m 0,00 h 0,0 UV-I 0 W/m 0,1 km/h (0 Bft)
08.02.2013 23:00 -1,5 C -2,4 C 97 % 0 lf 1017,2 hPa 0,0 l/m 0,00 h 0,0 UV-I 0 W/m 0,2 km/h (0 Bft)
09.02.2013 00:00 -1,0 C -2,1 C 98 % 1 lf 1017,4 hPa 0,0 l/m 0,00 h 0,0 UV-I 0 W/m 0,4 km/h (0 Bft)
09.02.2013 01:00 -0,9 C -2,1 C 98 % 1 lf 1017,6 hPa 0,0 l/m 0,00 h 0,0 UV-I 0 W/m 0,2 km/h (0 Bft)
09.02.2013 02:00 -1,1 C -2,1 C 98 % 0 lf 1017,8 hPa 0,0 l/m 0,00 h 0,0 UV-I 0 W/m 0,5 km/h (0 Bft)
09.02.2013 03:00 -1,1 C -2,1 C 98 % 0 lf 1017,9 hPa 0,0 l/m 0,00 h 0,0 UV-I 0 W/m 0,5 km/h (0 Bft)
09.02.2013 04:00 -1,1 C -2,1 C 98 % 0 lf 1018,0 hPa 0,0 l/m 0,00 h 0,0 UV-I 0 W/m 0,1 km/h (0 Bft)
09.02.2013 05:00 -1,3 C -2,4 C 98 % 0 lf 1018,2 hPa 0,0 l/m 0,00 h 0,0 UV-I 0 W/m 0,3 km/h (0 Bft)
09.02.2013 06:00 -1,2 C -2,2 C 98 % 0 lf 1018,4 hPa 0,0 l/m 0,00 h 0,0 UV-I 0 W/m 0,8 km/h (0 Bft)
09.02.2013 07:00 -1,5 C -2,7 C 98 % 0 lf 1018,7 hPa 0,0 l/m 0,00 h 0,0 UV-I 0 W/m 1,0 km/h (0 Bft)
09.02.2013 08:00 -1,6 C -2,7 C 98 % 0 lf 1019,1 hPa 0,0 l/m 0,00 h 0,0 UV-I 13 W/m 1,0 km/h (0 Bft)
09.02.2013 09:00 -1,6 C -2,1 C 98 % 0 lf 1019,6 hPa 0,0 l/m 0,00 h 0,0 UV-I 24 W/m 0,6 km/h (0 Bft)
09.02.2013 10:00 -1,3 C -1,8 C 98 % 1 lf 1019,9 hPa 0,0 l/m 0,00 h 0,0 UV-I 28 W/m 0,7 km/h (0 Bft)
09.02.2013 11:00 -0,9 C -1,4 C 98 % 2 lf 1020,0 hPa 0,0 l/m 0,00 h 0,0 UV-I 36 W/m 0,3 km/h (0 Bft)
09.02.2013 12:00 -0,6 C -0,8 C 96 % 0 lf 1020,0 hPa 0,0 l/m 0,17 h 0,0 UV-I 135 W/m 1,7 km/h (1 Bft)
09.02.2013 13:00 0,3 C -0,5 C 91 % 0 lf 1019,5 hPa 0,0 l/m 0,57 h 0,0 UV-I 258 W/m 2,8 km/h (1 Bft)
09.02.2013 14:00 1,3 C 0,1 C 86 % 0 lf 1019,1 hPa 0,0 l/m 0,97 h 0,0 UV-I 320 W/m 5,1 km/h (1 Bft)
09.02.2013 15:00 1,7 C 0,6 C 83 % 0 lf 1018,9 hPa 0,0 l/m 0,57 h 0,0 UV-I 187 W/m 0,5 km/h (0 Bft)
09.02.2013 16:00 1,4 C 0,0 C 83 % 0 lf 1018,7 hPa 0,0 l/m 0,07 h 0,0 UV-I 55 W/m 0,0 km/h (0 Bft)
09.02.2013 17:00 0,8 C -1,1 C 85 % 0 lf 1018,5 hPa 0,0 l/m 0,00 h 0,0 UV-I 10 W/m 0,0 km/h (0 Bft)
09.02.2013 18:00 -0,1 C -2,3 C 88 % 0 lf 1018,4 hPa 0,0 l/m 0,00 h 0,0 UV-I 0 W/m 0,0 km/h (0 Bft)
09.02.2013 19:00 -1,0 C -2,9 C 90 % 1 lf 1018,3 hPa 0,0 l/m 0,00 h 0,0 UV-I 0 W/m 0,0 km/h (0 Bft)
09.02.2013 20:00 -1,6 C -3,2 C 92 % 1 lf 1018,0 hPa 0,0 l/m 0,00 h 0,0 UV-I 0 W/m 0,5 km/h (0 Bft)
09.02.2013 21:00 -1,5 C -2,7 C 95 % 0 lf 1017,6 hPa 0,0 l/m 0,00 h 0,0 UV-I 0 W/m 0,7 km/h (0 Bft)
09.02.2013 22:00 -1,6 C -2,9 C 95 % 0 lf 1017,2 hPa 0,0 l/m 0,00 h 0,0 UV-I 0 W/m 0,9 km/h (0 Bft)
09.02.2013 23:00 -1,9 C -3,2 C 95 % 0 lf 1016,8 hPa 0,0 l/m 0,00 h 0,0 UV-I 0 W/m 0,7 km/h (0 Bft)
10.02.2013 00:00 -1,9 C -3,2 C 96 % 0 lf 1016,5 hPa 0,0 l/m 0,00 h 0,0 UV-I 0 W/m 1,9 km/h (1 Bft)
10.02.2013 01:00 -2,0 C -3,2 C 96 % 0 lf 1016,2 hPa 0,0 l/m 0,00 h 0,0 UV-I 0 W/m 2,1 km/h (1 Bft)
10.02.2013 02:00 -2,0 C -2,7 C 97 % 0 lf 1015,7 hPa 0,0 l/m 0,00 h 0,0 UV-I 0 W/m 5,0 km/h (1 Bft)
10.02.2013 03:00 -1,8 C -2,7 C 97 % 0 lf 1015,1 hPa 0,0 l/m 0,00 h 0,0 UV-I 0 W/m 9,1 km/h (2 Bft)
10.02.2013 04:00 -1,8 C -2,7 C 97 % 0 lf 1014,5 hPa 0,0 l/m 0,00 h 0,0 UV-I 0 W/m 6,9 km/h (2 Bft)
10.02.2013 05:00 -2,0 C -3,0 C 95 % 0 lf 1014,0 hPa 0,0 l/m 0,00 h 0,0 UV-I 0 W/m 5,4 km/h (1 Bft)
10.02.2013 06:00 -2,5 C -3,9 C 95 % 0 lf 1013,6 hPa 0,0 l/m 0,00 h 0,0 UV-I 0 W/m 2,6 km/h (1 Bft)
10.02.2013 07:00 -3,1 C -4,3 C 95 % 0 lf 1013,3 hPa 0,0 l/m 0,00 h 0,0 UV-I 0 W/m 2,6 km/h (1 Bft)
10.02.2013 08:00 -3,1 C -3,7 C 96 % 0 lf 1013,0 hPa 0,0 l/m 0,00 h 0,0 UV-I 30 W/m 10,2 km/h (2 Bft)
10.02.2013 09:00 -2,1 C -2,7 C 93 % 0 lf 1012,7 hPa 0,0 l/m 0,07 h 0,0 UV-I 63 W/m 15,9 km/h (3 Bft)
10.02.2013 10:00 -1,0 C -2,1 C 89 % 0 lf 1012,2 hPa 0,0 l/m 0,67 h 0,0 UV-I 218 W/m 14,9 km/h (3 Bft)
10.02.2013 11:00 1,2 C -0,4 C 76 % 0 lf 1011,7 hPa 0,0 l/m 1,00 h 0,0 UV-I 353 W/m 19,5 km/h (3 Bft)
10.02.2013 12:00 2,1 C 0,6 C 70 % 0 lf 1010,8 hPa 0,0 l/m 1,00 h 0,0 UV-I 394 W/m 24,7 km/h (4 Bft)
10.02.2013 13:00 2,2 C 0,7 C 70 % 0 lf 1009,6 hPa 0,0 l/m 1,00 h 0,0 UV-I 351 W/m 26,5 km/h (4 Bft)
10.02.2013 14:00 1,9 C 0,8 C 71 % 0 lf 1008,6 hPa 0,0 l/m 0,93 h 0,0 UV-I 260 W/m 26,1 km/h (4 Bft)
10.02.2013 15:00 2,0 C 1,0 C 70 % 0 lf 1008,0 hPa 0,0 l/m 1,00 h 0,0 UV-I 232 W/m 32,5 km/h (5 Bft)
10.02.2013 16:00 1,3 C -0,1 C 69 % 0 lf 1007,3 hPa 0,0 l/m 0,10 h 0,0 UV-I 64 W/m 26,9 km/h (4 Bft)
10.02.2013 17:00 0,5 C -1,1 C 73 % 0 lf 1006,6 hPa 0,0 l/m 0,00 h 0,0 UV-I 16 W/m 24,3 km/h (4 Bft)
10.02.2013 18:00 -0,4 C -2,0 C 75 % 0 lf 1006,2 hPa 0,0 l/m 0,00 h 0,0 UV-I 0 W/m 28,4 km/h (4 Bft)
10.02.2013 19:00 -0,7 C -2,1 C 75 % 0 lf 1005,5 hPa 0,0 l/m 0,00 h 0,0 UV-I 0 W/m 24,6 km/h (4 Bft)
10.02.2013 20:00 -0,9 C -2,2 C 74 % 0 lf 1005,0 hPa 0,0 l/m 0,00 h 0,0 UV-I 0 W/m 29,3 km/h (5 Bft)
10.02.2013 21:00 -1,1 C -2,7 C 73 % 0 lf 1004,4 hPa 0,0 l/m 0,00 h 0,0 UV-I 0 W/m 26,9 km/h (4 Bft)
10.02.2013 22:00 -1,4 C -2,8 C 73 % 0 lf 1003,8 hPa 0,0 l/m 0,00 h 0,0 UV-I 0 W/m 25,7 km/h (4 Bft)
10.02.2013 23:00 -1,8 C -3,2 C 75 % 0 lf 1003,4 hPa 0,0 l/m 0,00 h 0,0 UV-I 0 W/m 18,4 km/h (3 Bft)
Min-Datum _ 10.02.13 10.02.13 10.02.13 04.02.13 06.02.13 - - - - 04.02.13
_ Min-Zeit 08:06 06:46 12:24 13:42 04:54 - - - - 15:32
Minimum _ -3,4 C -4,3 C 68 % 0 lf 991,8 hPa - - - - 0,0 km/h (0 Bft)
Max-Datum _ 04.02.13 04.02.13 04.02.13 04.02.13 09.02.13 06.02.13 04.02.13 04.02.13 07.02.13 05.02.13
_ Max-Zeit 13:34 14:36 02:08 00:00 11:44 07:06 13:12 00:00 13:08 07:40
Maximum _ 9,3 C 7,9 C 100 % 15 lf 1020,1 hPa 5,8 l/m 0,03 h 0,0 UV-I 480 W/m 59,2 km/h
SW (7 Bft)
Durchschnitt _ 1,7 C 0,5 C 92 % 4 lf 1008,5 hPa #21,6 l/m #14:38 h 0,0 UV-I 106 W/m 9,0 km/h (2 Bft)
© 2013 W. Hausmann